17:41
Airports
History
Links
Donate
Help keep this website running!
PayPal
Bitcoin
This page is community maintained. The information is intended for PC simulator navigation or reference.
Always use approved charts for navigation.
YCMC
COMMANCHE
COMMANCHE (YCMC)
Glenroy, Queensland, Australia (4702)
4
Lat/Lng:23° 20' 21.89" S / 149° 52' 41.84" E
-23.339414 / 149.878288
Elevation:191'ft / 58mMSL
ID / ICAO:YCMC
Runways:1
Longest:6-24
Dirt 1,207m / 3,960ft
Nearby Weather17:30 GMT 2018-02-19
Nearby weather at YBRK, Rockhampton located 37.8 nautical miles from YCMC
Altimeter: 29.74
Visibility: 6.2 statute miles
Wind: 3 knots (from 250°)
Temp: 26°c / 79°f
Humidity: 78.7%

METAR: YBRK 191730Z AUTO 25003KT 9999 // BKN023 BKN029 OVC035 26/22 Q1007

(Powered by phpweather)
Runway 6 / 24
Dimensions:1207 x 39.9m 3960' x 131'ft
Surface:Dirt
Runway 6 [A]Runway 24 [B]
Heading:064°TH 244°TH
Lat:
Lng:
23° 20' 30.13"S
149° 52' 22.67"E
23° 20' 13.65"S
149° 53' 1"E
User Notes and Comments
23° 20' 21.89" S / 149° 52' 41.84" E
Distance To
Airport ID:
Nearby Airports
4 LAURINEL 20.7 NM
YLUN WNW 286°
4 DUARINGA 30.6 NM
YDRG SSW 206°
4 KAIUROO 33.2 NM
YKIU WNW 301°
(C) Rockhampton 37.8 NM
YBRK ( WX ) E 94°
4 TARTRUS 38.8 NM
YTTS NW 313°
(U) R10 41.3 NM
YBR1 E 92°
(C) Gordon 42.8 NM
AU34 NW 304°
VFR Chart
Flight Planning at SkyVector.com